sensor_id;sensor_type;location;lat;lon;timestamp;temperature;humidity
3330;DHT22;1677;49.576;10.990;2023-04-06T00:01:26;1.50;99.90
3330;DHT22;1677;49.576;10.990;2023-04-06T00:03:52;1.80;99.90
3330;DHT22;1677;49.576;10.990;2023-04-06T00:06:17;2.00;99.90
3330;DHT22;1677;49.576;10.990;2023-04-06T00:08:43;2.00;99.90
3330;DHT22;1677;49.576;10.990;2023-04-06T00:11:09;2.10;99.90
3330;DHT22;1677;49.576;10.990;2023-04-06T00:13:35;2.10;99.90
3330;DHT22;1677;49.576;10.990;2023-04-06T00:16:01;1.70;99.90
3330;DHT22;1677;49.576;10.990;2023-04-06T00:18:26;1.40;99.90
3330;DHT22;1677;49.576;10.990;2023-04-06T00:20:52;1.00;99.90
3330;DHT22;1677;49.576;10.990;2023-04-06T00:23:18;1.20;99.90
3330;DHT22;1677;49.576;10.990;2023-04-06T00:25:43;1.50;99.90
3330;DHT22;1677;49.576;10.990;2023-04-06T00:28:09;1.70;99.90
3330;DHT22;1677;49.576;10.990;2023-04-06T00:30:35;1.70;99.90
3330;DHT22;1677;49.576;10.990;2023-04-06T00:33:00;1.40;99.90
3330;DHT22;1677;49.576;10.990;2023-04-06T00:35:26;1.50;99.90
3330;DHT22;1677;49.576;10.990;2023-04-06T00:37:52;1.50;99.90
3330;DHT22;1677;49.576;10.990;2023-04-06T00:40:17;1.70;99.90
3330;DHT22;1677;49.576;10.990;2023-04-06T00:42:43;1.70;99.90
3330;DHT22;1677;49.576;10.990;2023-04-06T00:45:10;1.30;99.90
3330;DHT22;1677;49.576;10.990;2023-04-06T00:47:36;0.90;99.90
3330;DHT22;1677;49.576;10.990;2023-04-06T00:50:01;0.80;99.90
3330;DHT22;1677;49.576;10.990;2023-04-06T00:52:27;1.10;99.90
3330;DHT22;1677;49.576;10.990;2023-04-06T00:54:53;1.30;99.90
3330;DHT22;1677;49.576;10.990;2023-04-06T00:57:19;1.40;99.90
3330;DHT22;1677;49.576;10.990;2023-04-06T00:59:45;1.50;99.90
3330;DHT22;1677;49.576;10.990;2023-04-06T01:02:11;1.50;99.90
3330;DHT22;1677;49.576;10.990;2023-04-06T01:04:37;1.20;99.90
3330;DHT22;1677;49.576;10.990;2023-04-06T01:07:02;1.30;99.90
3330;DHT22;1677;49.576;10.990;2023-04-06T01:09:29;1.40;99.90
3330;DHT22;1677;49.576;10.990;2023-04-06T01:11:56;1.50;99.90
3330;DHT22;1677;49.576;10.990;2023-04-06T01:14:22;1.50;99.90
3330;DHT22;1677;49.576;10.990;2023-04-06T01:16:48;1.40;99.90
3330;DHT22;1677;49.576;10.990;2023-04-06T01:19:13;1.40;99.90
3330;DHT22;1677;49.576;10.990;2023-04-06T01:21:40;1.40;99.90
3330;DHT22;1677;49.576;10.990;2023-04-06T01:24:07;1.20;99.90
3330;DHT22;1677;49.576;10.990;2023-04-06T01:26:34;1.20;99.90
3330;DHT22;1677;49.576;10.990;2023-04-06T01:29:00;1.20;99.90
3330;DHT22;1677;49.576;10.990;2023-04-06T01:31:26;1.00;99.90
3330;DHT22;1677;49.576;10.990;2023-04-06T01:33:52;1.20;99.90
3330;DHT22;1677;49.576;10.990;2023-04-06T01:36:18;1.30;99.90
3330;DHT22;1677;49.576;10.990;2023-04-06T01:38:44;1.10;99.90
3330;DHT22;1677;49.576;10.990;2023-04-06T01:41:09;0.90;99.90
3330;DHT22;1677;49.576;10.990;2023-04-06T01:43:35;0.70;99.90
3330;DHT22;1677;49.576;10.990;2023-04-06T01:46:01;0.90;99.90
3330;DHT22;1677;49.576;10.990;2023-04-06T01:48:27;0.70;99.90
3330;DHT22;1677;49.576;10.990;2023-04-06T01:50:53;0.90;99.90
3330;DHT22;1677;49.576;10.990;2023-04-06T01:53:19;1.00;99.90
3330;DHT22;1677;49.576;10.990;2023-04-06T01:55:45;0.90;99.90
3330;DHT22;1677;49.576;10.990;2023-04-06T01:58:11;0.80;99.90
3330;DHT22;1677;49.576;10.990;2023-04-06T02:00:36;1.00;99.90
3330;DHT22;1677;49.576;10.990;2023-04-06T02:03:02;1.10;99.90
3330;DHT22;1677;49.576;10.990;2023-04-06T02:05:30;1.20;99.90
3330;DHT22;1677;49.576;10.990;2023-04-06T02:07:56;1.30;99.90
3330;DHT22;1677;49.576;10.990;2023-04-06T02:10:22;1.30;99.90
3330;DHT22;1677;49.576;10.990;2023-04-06T02:12:48;1.20;99.90
3330;DHT22;1677;49.576;10.990;2023-04-06T02:15:14;1.20;99.90
3330;DHT22;1677;49.576;10.990;2023-04-06T02:17:40;1.20;99.90
3330;DHT22;1677;49.576;10.990;2023-04-06T02:20:07;1.20;99.90
3330;DHT22;1677;49.576;10.990;2023-04-06T02:22:33;1.20;99.90
3330;DHT22;1677;49.576;10.990;2023-04-06T02:24:58;1.10;99.90
3330;DHT22;1677;49.576;10.990;2023-04-06T02:27:24;0.80;99.90
3330;DHT22;1677;49.576;10.990;2023-04-06T02:29:50;0.70;99.90
3330;DHT22;1677;49.576;10.990;2023-04-06T02:32:15;0.90;99.90
3330;DHT22;1677;49.576;10.990;2023-04-06T02:34:41;1.00;99.90
3330;DHT22;1677;49.576;10.990;2023-04-06T02:37:06;1.00;99.90
3330;DHT22;1677;49.576;10.990;2023-04-06T02:39:32;0.80;99.90
3330;DHT22;1677;49.576;10.990;2023-04-06T02:41:58;0.60;99.90
3330;DHT22;1677;49.576;10.990;2023-04-06T02:44:23;0.50;99.90
3330;DHT22;1677;49.576;10.990;2023-04-06T02:46:49;0.40;99.90
3330;DHT22;1677;49.576;10.990;2023-04-06T02:49:15;0.30;99.90
3330;DHT22;1677;49.576;10.990;2023-04-06T02:51:41;0.40;99.90
3330;DHT22;1677;49.576;10.990;2023-04-06T02:54:06;0.30;99.90
3330;DHT22;1677;49.576;10.990;2023-04-06T02:56:32;0.40;99.90
3330;DHT22;1677;49.576;10.990;2023-04-06T02:58:57;0.60;99.90
3330;DHT22;1677;49.576;10.990;2023-04-06T03:01:23;0.50;99.90
3330;DHT22;1677;49.576;10.990;2023-04-06T03:03:49;0.60;99.90
3330;DHT22;1677;49.576;10.990;2023-04-06T03:06:14;0.50;99.90
3330;DHT22;1677;49.576;10.990;2023-04-06T03:08:40;0.40;99.90
3330;DHT22;1677;49.576;10.990;2023-04-06T03:11:05;0.20;99.90
3330;DHT22;1677;49.576;10.990;2023-04-06T03:13:31;0.10;99.90
3330;DHT22;1677;49.576;10.990;2023-04-06T03:15:57;0.10;99.90
3330;DHT22;1677;49.576;10.990;2023-04-06T03:18:24;0.00;99.90
3330;DHT22;1677;49.576;10.990;2023-04-06T03:20:50;0.10;99.90
3330;DHT22;1677;49.576;10.990;2023-04-06T03:23:16;0.20;99.90
3330;DHT22;1677;49.576;10.990;2023-04-06T03:25:42;0.20;99.90
3330;DHT22;1677;49.576;10.990;2023-04-06T03:28:07;0.40;99.90
3330;DHT22;1677;49.576;10.990;2023-04-06T03:30:34;0.10;99.90
3330;DHT22;1677;49.576;10.990;2023-04-06T03:33:00;-0.20;99.90
3330;DHT22;1677;49.576;10.990;2023-04-06T03:35:25;-0.30;99.90
3330;DHT22;1677;49.576;10.990;2023-04-06T03:37:51;-0.10;99.90
3330;DHT22;1677;49.576;10.990;2023-04-06T03:40:16;0.00;99.90
3330;DHT22;1677;49.576;10.990;2023-04-06T03:42:42;-0.10;99.90
3330;DHT22;1677;49.576;10.990;2023-04-06T03:45:08;-0.40;99.90
3330;DHT22;1677;49.576;10.990;2023-04-06T03:47:34;-0.30;99.90
3330;DHT22;1677;49.576;10.990;2023-04-06T03:49:59;-0.20;99.90
3330;DHT22;1677;49.576;10.990;2023-04-06T03:52:25;-0.30;99.90
3330;DHT22;1677;49.576;10.990;2023-04-06T03:54:51;-0.60;99.90
3330;DHT22;1677;49.576;10.990;2023-04-06T03:57:17;-0.60;99.90
3330;DHT22;1677;49.576;10.990;2023-04-06T03:59:43;-0.30;99.90
3330;DHT22;1677;49.576;10.990;2023-04-06T04:02:08;0.00;99.90
3330;DHT22;1677;49.576;10.990;2023-04-06T04:04:34;0.20;99.90
3330;DHT22;1677;49.576;10.990;2023-04-06T04:06:59;0.00;99.90
3330;DHT22;1677;49.576;10.990;2023-04-06T04:09:25;-0.30;99.90
3330;DHT22;1677;49.576;10.990;2023-04-06T04:11:50;-0.50;99.90
3330;DHT22;1677;49.576;10.990;2023-04-06T04:14:16;-0.70;99.90
3330;DHT22;1677;49.576;10.990;2023-04-06T04:16:41;-0.50;99.90
3330;DHT22;1677;49.576;10.990;2023-04-06T04:19:07;-0.20;99.90
3330;DHT22;1677;49.576;10.990;2023-04-06T04:21:33;-0.10;99.90
3330;DHT22;1677;49.576;10.990;2023-04-06T04:23:59;0.00;99.90
3330;DHT22;1677;49.576;10.990;2023-04-06T04:26:24;-0.10;99.90
3330;DHT22;1677;49.576;10.990;2023-04-06T04:28:50;0.10;99.90
3330;DHT22;1677;49.576;10.990;2023-04-06T04:31:15;0.20;99.90
3330;DHT22;1677;49.576;10.990;2023-04-06T04:33:43;0.20;99.90
3330;DHT22;1677;49.576;10.990;2023-04-06T04:36:09;0.20;99.90
3330;DHT22;1677;49.576;10.990;2023-04-06T04:38:35;-0.10;99.90
3330;DHT22;1677;49.576;10.990;2023-04-06T04:41:01;-0.40;99.90
3330;DHT22;1677;49.576;10.990;2023-04-06T04:43:26;-0.70;99.90
3330;DHT22;1677;49.576;10.990;2023-04-06T04:45:52;-0.50;99.90
3330;DHT22;1677;49.576;10.990;2023-04-06T04:48:18;-0.40;99.90
3330;DHT22;1677;49.576;10.990;2023-04-06T04:50:43;-0.50;99.90
3330;DHT22;1677;49.576;10.990;2023-04-06T04:53:09;-0.60;99.90
3330;DHT22;1677;49.576;10.990;2023-04-06T04:55:35;-0.60;99.90
3330;DHT22;1677;49.576;10.990;2023-04-06T04:58:00;-0.50;99.90
3330;DHT22;1677;49.576;10.990;2023-04-06T05:00:27;-0.30;99.90
3330;DHT22;1677;49.576;10.990;2023-04-06T05:02:53;-0.40;99.90
3330;DHT22;1677;49.576;10.990;2023-04-06T05:05:18;-0.30;99.90
3330;DHT22;1677;49.576;10.990;2023-04-06T05:07:44;-0.30;99.90
3330;DHT22;1677;49.576;10.990;2023-04-06T05:10:09;-0.20;99.90
3330;DHT22;1677;49.576;10.990;2023-04-06T05:12:35;0.00;99.90
3330;DHT22;1677;49.576;10.990;2023-04-06T05:15:01;0.10;99.90
3330;DHT22;1677;49.576;10.990;2023-04-06T05:17:26;0.20;99.90
3330;DHT22;1677;49.576;10.990;2023-04-06T05:19:52;0.30;99.90
3330;DHT22;1677;49.576;10.990;2023-04-06T05:22:18;0.10;99.90
3330;DHT22;1677;49.576;10.990;2023-04-06T05:24:44;-0.10;99.90
3330;DHT22;1677;49.576;10.990;2023-04-06T05:27:09;-0.10;99.90
3330;DHT22;1677;49.576;10.990;2023-04-06T05:29:35;-0.10;99.90
3330;DHT22;1677;49.576;10.990;2023-04-06T05:32:01;-0.10;99.90
3330;DHT22;1677;49.576;10.990;2023-04-06T05:34:27;0.10;99.90
3330;DHT22;1677;49.576;10.990;2023-04-06T05:36:53;0.00;99.90
3330;DHT22;1677;49.576;10.990;2023-04-06T05:39:18;-0.10;99.90
3330;DHT22;1677;49.576;10.990;2023-04-06T05:41:44;-0.10;99.90
3330;DHT22;1677;49.576;10.990;2023-04-06T05:44:10;0.10;99.90
3330;DHT22;1677;49.576;10.990;2023-04-06T05:46:36;0.20;99.90
3330;DHT22;1677;49.576;10.990;2023-04-06T05:49:01;0.30;99.90
3330;DHT22;1677;49.576;10.990;2023-04-06T05:51:27;0.30;99.90
3330;DHT22;1677;49.576;10.990;2023-04-06T05:53:52;0.50;99.90
3330;DHT22;1677;49.576;10.990;2023-04-06T05:56:18;0.60;99.90
3330;DHT22;1677;49.576;10.990;2023-04-06T05:58:44;0.60;99.90
3330;DHT22;1677;49.576;10.990;2023-04-06T06:01:10;0.80;99.90
3330;DHT22;1677;49.576;10.990;2023-04-06T06:03:36;0.90;99.90
3330;DHT22;1677;49.576;10.990;2023-04-06T06:06:02;0.90;99.90
3330;DHT22;1677;49.576;10.990;2023-04-06T06:08:28;1.00;99.90
3330;DHT22;1677;49.576;10.990;2023-04-06T06:10:54;1.10;99.90
3330;DHT22;1677;49.576;10.990;2023-04-06T06:13:20;1.30;99.90
3330;DHT22;1677;49.576;10.990;2023-04-06T06:15:46;1.30;99.90
3330;DHT22;1677;49.576;10.990;2023-04-06T06:18:12;1.90;99.90
3330;DHT22;1677;49.576;10.990;2023-04-06T06:20:37;2.20;99.90
3330;DHT22;1677;49.576;10.990;2023-04-06T06:23:03;2.50;99.90
3330;DHT22;1677;49.576;10.990;2023-04-06T06:25:28;2.80;99.40
3330;DHT22;1677;49.576;10.990;2023-04-06T06:27:56;2.90;98.90
3330;DHT22;1677;49.576;10.990;2023-04-06T06:30:22;3.20;98.20
3330;DHT22;1677;49.576;10.990;2023-04-06T06:32:50;3.40;97.30
3330;DHT22;1677;49.576;10.990;2023-04-06T06:35:15;3.50;96.90
3330;DHT22;1677;49.576;10.990;2023-04-06T06:37:41;3.50;96.30
3330;DHT22;1677;49.576;10.990;2023-04-06T06:40:08;3.60;96.60
3330;DHT22;1677;49.576;10.990;2023-04-06T06:42:34;4.20;95.10
3330;DHT22;1677;49.576;10.990;2023-04-06T06:44:59;4.60;95.30
3330;DHT22;1677;49.576;10.990;2023-04-06T06:47:25;5.10;93.30
3330;DHT22;1677;49.576;10.990;2023-04-06T06:49:51;5.70;92.20
3330;DHT22;1677;49.576;10.990;2023-04-06T06:52:17;6.00;91.00
3330;DHT22;1677;49.576;10.990;2023-04-06T06:54:42;6.20;90.00
3330;DHT22;1677;49.576;10.990;2023-04-06T06:57:08;6.80;88.30
3330;DHT22;1677;49.576;10.990;2023-04-06T06:59:34;7.10;84.60
3330;DHT22;1677;49.576;10.990;2023-04-06T07:02:00;6.90;83.60
3330;DHT22;1677;49.576;10.990;2023-04-06T07:04:25;7.30;81.70
3330;DHT22;1677;49.576;10.990;2023-04-06T07:06:51;8.00;80.10
3330;DHT22;1677;49.576;10.990;2023-04-06T07:09:18;8.70;75.30
3330;DHT22;1677;49.576;10.990;2023-04-06T07:11:44;9.10;72.60
3330;DHT22;1677;49.576;10.990;2023-04-06T07:14:09;9.70;68.80
3330;DHT22;1677;49.576;10.990;2023-04-06T07:16:36;10.20;65.20
3330;DHT22;1677;49.576;10.990;2023-04-06T07:19:02;10.90;62.80
3330;DHT22;1677;49.576;10.990;2023-04-06T07:21:27;11.50;60.60
3330;DHT22;1677;49.576;10.990;2023-04-06T07:23:53;11.70;56.40
3330;DHT22;1677;49.576;10.990;2023-04-06T07:26:19;12.40;57.10
3330;DHT22;1677;49.576;10.990;2023-04-06T07:28:45;12.70;51.90
3330;DHT22;1677;49.576;10.990;2023-04-06T07:31:11;12.50;51.90
3330;DHT22;1677;49.576;10.990;2023-04-06T07:33:36;11.90;50.20
3330;DHT22;1677;49.576;10.990;2023-04-06T07:36:02;11.30;52.80
3330;DHT22;1677;49.576;10.990;2023-04-06T07:38:27;12.30;52.30
3330;DHT22;1677;49.576;10.990;2023-04-06T07:40:53;14.00;49.30
3330;DHT22;1677;49.576;10.990;2023-04-06T07:43:19;15.40;46.40
3330;DHT22;1677;49.576;10.990;2023-04-06T07:45:44;16.70;41.80
3330;DHT22;1677;49.576;10.990;2023-04-06T07:48:10;17.40;38.10
3330;DHT22;1677;49.576;10.990;2023-04-06T07:50:36;17.40;36.60
3330;DHT22;1677;49.576;10.990;2023-04-06T07:53:02;17.30;37.50
3330;DHT22;1677;49.576;10.990;2023-04-06T07:55:28;16.10;35.20
3330;DHT22;1677;49.576;10.990;2023-04-06T07:57:53;15.00;38.30
3330;DHT22;1677;49.576;10.990;2023-04-06T08:00:19;16.70;38.00
3330;DHT22;1677;49.576;10.990;2023-04-06T08:02:45;17.10;35.00
3330;DHT22;1677;49.576;10.990;2023-04-06T08:05:11;16.30;35.10
3330;DHT22;1677;49.576;10.990;2023-04-06T08:07:36;17.50;35.10
3330;DHT22;1677;49.576;10.990;2023-04-06T08:10:02;18.70;33.50
3330;DHT22;1677;49.576;10.990;2023-04-06T08:12:28;19.70;32.00
3330;DHT22;1677;49.576;10.990;2023-04-06T08:14:53;20.30;30.40
3330;DHT22;1677;49.576;10.990;2023-04-06T08:17:19;21.30;30.00
3330;DHT22;1677;49.576;10.990;2023-04-06T08:19:45;21.60;28.40
3330;DHT22;1677;49.576;10.990;2023-04-06T08:22:11;22.30;27.50
3330;DHT22;1677;49.576;10.990;2023-04-06T08:24:37;22.50;27.50
3330;DHT22;1677;49.576;10.990;2023-04-06T08:27:02;23.60;26.70
3330;DHT22;1677;49.576;10.990;2023-04-06T08:29:28;20.00;26.40
3330;DHT22;1677;49.576;10.990;2023-04-06T08:31:54;19.20;27.70
3330;DHT22;1677;49.576;10.990;2023-04-06T08:34:21;19.50;27.70
3330;DHT22;1677;49.576;10.990;2023-04-06T08:36:46;20.60;28.00
3330;DHT22;1677;49.576;10.990;2023-04-06T08:39:12;20.90;26.70
3330;DHT22;1677;49.576;10.990;2023-04-06T08:41:41;22.10;27.00
3330;DHT22;1677;49.576;10.990;2023-04-06T08:44:06;21.90;25.30
3330;DHT22;1677;49.576;10.990;2023-04-06T08:46:32;21.40;25.40
3330;DHT22;1677;49.576;10.990;2023-04-06T08:49:00;19.70;26.10
3330;DHT22;1677;49.576;10.990;2023-04-06T08:51:26;20.70;26.70
3330;DHT22;1677;49.576;10.990;2023-04-06T08:53:56;22.20;25.30
3330;DHT22;1677;49.576;10.990;2023-04-06T08:56:23;23.90;24.30
3330;DHT22;1677;49.576;10.990;2023-04-06T08:58:49;23.80;23.90
3330;DHT22;1677;49.576;10.990;2023-04-06T09:01:17;24.60;23.30
3330;DHT22;1677;49.576;10.990;2023-04-06T09:03:45;24.50;22.00
3330;DHT22;1677;49.576;10.990;2023-04-06T09:06:13;24.80;22.80
3330;DHT22;1677;49.576;10.990;2023-04-06T09:08:40;25.00;22.20
3330;DHT22;1677;49.576;10.990;2023-04-06T09:11:07;23.80;21.70
3330;DHT22;1677;49.576;10.990;2023-04-06T09:13:56;23.10;21.50
3330;DHT22;1677;49.576;10.990;2023-04-06T09:16:23;19.50;23.30
3330;DHT22;1677;49.576;10.990;2023-04-06T09:18:49;21.10;23.80
3330;DHT22;1677;49.576;10.990;2023-04-06T09:21:20;23.20;25.00
3330;DHT22;1677;49.576;10.990;2023-04-06T09:23:46;25.10;23.10
3330;DHT22;1677;49.576;10.990;2023-04-06T09:26:17;26.90;21.60
3330;DHT22;1677;49.576;10.990;2023-04-06T09:28:53;28.00;19.20
3330;DHT22;1677;49.576;10.990;2023-04-06T09:31:23;27.70;19.50
3330;DHT22;1677;49.576;10.990;2023-04-06T09:33:50;27.90;18.90
3330;DHT22;1677;49.576;10.990;2023-04-06T09:36:15;28.70;19.20
3330;DHT22;1677;49.576;10.990;2023-04-06T09:39:01;28.50;17.20
3330;DHT22;1677;49.576;10.990;2023-04-06T09:41:31;26.20;20.80
3330;DHT22;1677;49.576;10.990;2023-04-06T09:44:11;27.30;19.40
3330;DHT22;1677;49.576;10.990;2023-04-06T09:46:42;27.80;18.50
3330;DHT22;1677;49.576;10.990;2023-04-06T09:49:09;27.40;17.60
3330;DHT22;1677;49.576;10.990;2023-04-06T09:52:02;26.60;17.80
3330;DHT22;1677;49.576;10.990;2023-04-06T09:54:29;25.10;17.70
3330;DHT22;1677;49.576;10.990;2023-04-06T10:02:23;26.10;20.50
3330;DHT22;1677;49.576;10.990;2023-04-06T10:05:02;27.60;19.10
3330;DHT22;1677;49.576;10.990;2023-04-06T10:07:31;26.00;18.00
3330;DHT22;1677;49.576;10.990;2023-04-06T10:09:58;27.00;18.80
3330;DHT22;1677;49.576;10.990;2023-04-06T10:12:25;28.60;19.00
3330;DHT22;1677;49.576;10.990;2023-04-06T10:14:51;26.90;17.10
3330;DHT22;1677;49.576;10.990;2023-04-06T10:17:17;26.80;19.10
3330;DHT22;1677;49.576;10.990;2023-04-06T10:20:21;26.20;17.30
3330;DHT22;1677;49.576;10.990;2023-04-06T10:25:30;25.00;17.60
3330;DHT22;1677;49.576;10.990;2023-04-06T10:28:08;24.60;18.60
3330;DHT22;1677;49.576;10.990;2023-04-06T10:30:35;24.10;19.20
3330;DHT22;1677;49.576;10.990;2023-04-06T10:33:13;24.90;18.00
3330;DHT22;1677;49.576;10.990;2023-04-06T10:35:39;24.90;19.60
3330;DHT22;1677;49.576;10.990;2023-04-06T10:38:05;26.80;19.50
3330;DHT22;1677;49.576;10.990;2023-04-06T10:40:31;28.40;18.50
3330;DHT22;1677;49.576;10.990;2023-04-06T10:43:11;29.20;16.60
3330;DHT22;1677;49.576;10.990;2023-04-06T10:45:38;29.60;16.30
3330;DHT22;1677;49.576;10.990;2023-04-06T10:48:17;28.60;16.20
3330;DHT22;1677;49.576;10.990;2023-04-06T10:50:53;26.40;17.30
3330;DHT22;1677;49.576;10.990;2023-04-06T10:53:23;26.30;18.20
3330;DHT22;1677;49.576;10.990;2023-04-06T10:55:58;26.80;17.30
3330;DHT22;1677;49.576;10.990;2023-04-06T10:58:26;26.90;16.30
3330;DHT22;1677;49.576;10.990;2023-04-06T11:00:52;26.10;17.30
3330;DHT22;1677;49.576;10.990;2023-04-06T11:03:18;26.70;17.70
3330;DHT22;1677;49.576;10.990;2023-04-06T11:05:49;27.70;16.90
3330;DHT22;1677;49.576;10.990;2023-04-06T11:08:29;27.40;17.80
3330;DHT22;1677;49.576;10.990;2023-04-06T11:11:09;28.10;18.20
3330;DHT22;1677;49.576;10.990;2023-04-06T11:13:43;28.30;16.90
3330;DHT22;1677;49.576;10.990;2023-04-06T11:18:56;28.50;17.70
3330;DHT22;1677;49.576;10.990;2023-04-06T11:21:38;28.60;17.00
3330;DHT22;1677;49.576;10.990;2023-04-06T11:24:19;29.50;16.40
3330;DHT22;1677;49.576;10.990;2023-04-06T11:26:50;29.00;14.90
3330;DHT22;1677;49.576;10.990;2023-04-06T11:29:24;28.50;16.40
3330;DHT22;1677;49.576;10.990;2023-04-06T11:31:52;28.90;16.00
3330;DHT22;1677;49.576;10.990;2023-04-06T11:34:23;28.80;15.40
3330;DHT22;1677;49.576;10.990;2023-04-06T11:36:59;28.80;15.80
3330;DHT22;1677;49.576;10.990;2023-04-06T11:39:27;29.30;17.20
3330;DHT22;1677;49.576;10.990;2023-04-06T11:41:57;30.10;16.70
3330;DHT22;1677;49.576;10.990;2023-04-06T11:44:32;30.30;16.50
3330;DHT22;1677;49.576;10.990;2023-04-06T11:46:59;30.20;17.10
3330;DHT22;1677;49.576;10.990;2023-04-06T11:49:30;28.70;16.70
3330;DHT22;1677;49.576;10.990;2023-04-06T11:51:56;26.60;16.60
3330;DHT22;1677;49.576;10.990;2023-04-06T11:54:33;25.40;17.70
3330;DHT22;1677;49.576;10.990;2023-04-06T11:56:59;25.00;18.40
3330;DHT22;1677;49.576;10.990;2023-04-06T11:59:26;25.40;18.90
3330;DHT22;1677;49.576;10.990;2023-04-06T12:01:52;26.00;19.00
3330;DHT22;1677;49.576;10.990;2023-04-06T12:04:19;25.80;17.50
3330;DHT22;1677;49.576;10.990;2023-04-06T12:06:44;25.60;18.60
3330;DHT22;1677;49.576;10.990;2023-04-06T12:09:10;24.10;18.20
3330;DHT22;1677;49.576;10.990;2023-04-06T12:11:36;22.70;17.70
3330;DHT22;1677;49.576;10.990;2023-04-06T12:14:02;21.70;19.30
3330;DHT22;1677;49.576;10.990;2023-04-06T12:16:30;21.40;19.70
3330;DHT22;1677;49.576;10.990;2023-04-06T12:18:56;20.90;20.40
3330;DHT22;1677;49.576;10.990;2023-04-06T12:21:21;20.80;22.40
3330;DHT22;1677;49.576;10.990;2023-04-06T12:23:47;20.70;21.90
3330;DHT22;1677;49.576;10.990;2023-04-06T12:26:12;20.70;22.70
3330;DHT22;1677;49.576;10.990;2023-04-06T12:28:38;20.50;20.80
3330;DHT22;1677;49.576;10.990;2023-04-06T12:31:04;20.60;21.90
3330;DHT22;1677;49.576;10.990;2023-04-06T12:33:29;20.60;22.10
3330;DHT22;1677;49.576;10.990;2023-04-06T12:35:55;20.60;20.90
3330;DHT22;1677;49.576;10.990;2023-04-06T12:38:21;20.20;20.70
3330;DHT22;1677;49.576;10.990;2023-04-06T12:40:47;19.30;20.80
3330;DHT22;1677;49.576;10.990;2023-04-06T12:43:13;18.30;21.30
3330;DHT22;1677;49.576;10.990;2023-04-06T12:45:39;17.50;22.40
3330;DHT22;1677;49.576;10.990;2023-04-06T12:48:06;17.10;22.00
3330;DHT22;1677;49.576;10.990;2023-04-06T12:50:31;17.30;23.90
3330;DHT22;1677;49.576;10.990;2023-04-06T12:52:57;17.70;23.20
3330;DHT22;1677;49.576;10.990;2023-04-06T12:55:23;17.90;23.00
3330;DHT22;1677;49.576;10.990;2023-04-06T12:57:48;17.70;22.60
3330;DHT22;1677;49.576;10.990;2023-04-06T13:00:14;17.70;22.70
3330;DHT22;1677;49.576;10.990;2023-04-06T13:02:40;17.10;21.20
3330;DHT22;1677;49.576;10.990;2023-04-06T13:05:12;17.40;22.20
3330;DHT22;1677;49.576;10.990;2023-04-06T13:07:37;17.10;21.50
3330;DHT22;1677;49.576;10.990;2023-04-06T13:10:03;17.00;23.10
3330;DHT22;1677;49.576;10.990;2023-04-06T13:12:29;17.10;22.90
3330;DHT22;1677;49.576;10.990;2023-04-06T13:14:55;16.80;22.50
3330;DHT22;1677;49.576;10.990;2023-04-06T13:17:21;16.80;22.50
3330;DHT22;1677;49.576;10.990;2023-04-06T13:19:47;17.20;24.10
3330;DHT22;1677;49.576;10.990;2023-04-06T13:22:13;17.70;24.10
3330;DHT22;1677;49.576;10.990;2023-04-06T13:24:38;17.90;23.30
3330;DHT22;1677;49.576;10.990;2023-04-06T13:27:04;18.10;23.60
3330;DHT22;1677;49.576;10.990;2023-04-06T13:29:30;18.00;22.30
3330;DHT22;1677;49.576;10.990;2023-04-06T13:31:56;17.50;22.60
3330;DHT22;1677;49.576;10.990;2023-04-06T13:34:21;16.60;22.50
3330;DHT22;1677;49.576;10.990;2023-04-06T13:36:47;16.30;24.00
3330;DHT22;1677;49.576;10.990;2023-04-06T13:39:12;16.20;22.50
3330;DHT22;1677;49.576;10.990;2023-04-06T13:41:38;15.90;24.30
3330;DHT22;1677;49.576;10.990;2023-04-06T13:44:05;16.30;25.70
3330;DHT22;1677;49.576;10.990;2023-04-06T13:46:31;15.80;23.10
3330;DHT22;1677;49.576;10.990;2023-04-06T13:48:57;16.00;23.70
3330;DHT22;1677;49.576;10.990;2023-04-06T13:51:23;16.20;23.30
3330;DHT22;1677;49.576;10.990;2023-04-06T13:53:48;15.90;23.60
3330;DHT22;1677;49.576;10.990;2023-04-06T13:56:17;16.30;24.00
3330;DHT22;1677;49.576;10.990;2023-04-06T13:58:43;16.70;24.70
3330;DHT22;1677;49.576;10.990;2023-04-06T14:01:08;17.00;23.00
3330;DHT22;1677;49.576;10.990;2023-04-06T14:03:35;16.80;22.90
3330;DHT22;1677;49.576;10.990;2023-04-06T14:06:01;16.20;21.90
3330;DHT22;1677;49.576;10.990;2023-04-06T14:08:26;15.70;23.00
3330;DHT22;1677;49.576;10.990;2023-04-06T14:10:52;16.10;23.60
3330;DHT22;1677;49.576;10.990;2023-04-06T14:13:19;15.70;22.80
3330;DHT22;1677;49.576;10.990;2023-04-06T14:15:45;15.90;23.20
3330;DHT22;1677;49.576;10.990;2023-04-06T14:18:10;15.90;23.40
3330;DHT22;1677;49.576;10.990;2023-04-06T14:20:36;15.30;23.00
3330;DHT22;1677;49.576;10.990;2023-04-06T14:23:02;15.10;23.40
3330;DHT22;1677;49.576;10.990;2023-04-06T14:25:28;15.50;23.30
3330;DHT22;1677;49.576;10.990;2023-04-06T14:27:56;15.10;23.10
3330;DHT22;1677;49.576;10.990;2023-04-06T14:30:22;14.80;24.20
3330;DHT22;1677;49.576;10.990;2023-04-06T14:32:47;14.90;23.90
3330;DHT22;1677;49.576;10.990;2023-04-06T14:35:13;15.00;24.30
3330;DHT22;1677;49.576;10.990;2023-04-06T14:37:38;15.20;24.20
3330;DHT22;1677;49.576;10.990;2023-04-06T14:40:05;15.30;24.40
3330;DHT22;1677;49.576;10.990;2023-04-06T14:42:30;15.50;23.90
3330;DHT22;1677;49.576;10.990;2023-04-06T14:44:57;15.10;23.80
3330;DHT22;1677;49.576;10.990;2023-04-06T14:47:22;14.70;24.10
3330;DHT22;1677;49.576;10.990;2023-04-06T14:49:51;14.20;24.50
3330;DHT22;1677;49.576;10.990;2023-04-06T14:52:16;14.20;24.90
3330;DHT22;1677;49.576;10.990;2023-04-06T14:54:42;14.20;25.10
3330;DHT22;1677;49.576;10.990;2023-04-06T14:57:07;14.40;25.50
3330;DHT22;1677;49.576;10.990;2023-04-06T14:59:33;14.40;26.30
3330;DHT22;1677;49.576;10.990;2023-04-06T15:01:59;14.70;25.60
3330;DHT22;1677;49.576;10.990;2023-04-06T15:04:28;14.90;27.20
3330;DHT22;1677;49.576;10.990;2023-04-06T15:06:54;15.00;26.30
3330;DHT22;1677;49.576;10.990;2023-04-06T15:09:19;15.10;25.60
3330;DHT22;1677;49.576;10.990;2023-04-06T15:11:45;15.00;26.40
3330;DHT22;1677;49.576;10.990;2023-04-06T15:14:10;14.70;27.90
3330;DHT22;1677;49.576;10.990;2023-04-06T15:16:36;14.80;28.70
3330;DHT22;1677;49.576;10.990;2023-04-06T15:19:02;14.70;27.10
3330;DHT22;1677;49.576;10.990;2023-04-06T15:21:27;14.50;27.80
3330;DHT22;1677;49.576;10.990;2023-04-06T15:23:53;14.40;28.60
3330;DHT22;1677;49.576;10.990;2023-04-06T15:26:20;14.30;26.50
3330;DHT22;1677;49.576;10.990;2023-04-06T15:28:45;14.20;25.70
3330;DHT22;1677;49.576;10.990;2023-04-06T15:31:18;14.20;26.30
3330;DHT22;1677;49.576;10.990;2023-04-06T15:33:45;14.10;26.40
3330;DHT22;1677;49.576;10.990;2023-04-06T15:36:23;14.10;27.40
3330;DHT22;1677;49.576;10.990;2023-04-06T15:38:50;14.10;26.70
3330;DHT22;1677;49.576;10.990;2023-04-06T15:41:16;14.10;27.30
3330;DHT22;1677;49.576;10.990;2023-04-06T15:43:42;14.00;27.40
3330;DHT22;1677;49.576;10.990;2023-04-06T15:46:07;14.00;26.50
3330;DHT22;1677;49.576;10.990;2023-04-06T15:48:33;13.90;25.70
3330;DHT22;1677;49.576;10.990;2023-04-06T15:50:59;13.80;25.40
3330;DHT22;1677;49.576;10.990;2023-04-06T15:53:26;13.60;25.90
3330;DHT22;1677;49.576;10.990;2023-04-06T15:56:00;13.60;25.60
3330;DHT22;1677;49.576;10.990;2023-04-06T15:58:27;13.20;26.40
3330;DHT22;1677;49.576;10.990;2023-04-06T16:00:53;13.30;26.60